sensor_id;sensor_type;location;lat;lon;timestamp;pressure;altitude;pressure_sealevel;temperature;humidity
57594;BME280;43423;46.510;6.686;2022-07-29T00:00:12;96249.19;;;22.21;43.12
57594;BME280;43423;46.510;6.686;2022-07-29T00:02:57;96244.13;;;22.19;43.56
57594;BME280;43423;46.510;6.686;2022-07-29T00:05:23;96246.59;;;22.15;43.14
57594;BME280;43423;46.510;6.686;2022-07-29T00:07:48;96247.16;;;22.14;43.58
57594;BME280;43423;46.510;6.686;2022-07-29T00:10:13;96247.13;;;22.06;42.58
57594;BME280;43423;46.510;6.686;2022-07-29T00:12:39;96243.78;;;22.15;39.63
57594;BME280;43423;46.510;6.686;2022-07-29T00:15:05;96246.00;;;22.17;41.70
57594;BME280;43423;46.510;6.686;2022-07-29T00:17:30;96242.88;;;22.13;42.99
57594;BME280;43423;46.510;6.686;2022-07-29T00:19:56;96243.78;;;22.08;43.43
57594;BME280;43423;46.510;6.686;2022-07-29T00:22:21;96240.41;;;22.01;40.90
57594;BME280;43423;46.510;6.686;2022-07-29T00:24:48;96243.22;;;22.09;40.21
57594;BME280;43423;46.510;6.686;2022-07-29T00:27:14;96242.13;;;22.12;41.65
57594;BME280;43423;46.510;6.686;2022-07-29T00:29:39;96240.41;;;22.17;41.20
57594;BME280;43423;46.510;6.686;2022-07-29T00:32:05;96243.78;;;22.15;40.39
57594;BME280;43423;46.510;6.686;2022-07-29T00:34:30;96237.97;;;22.06;41.31
57594;BME280;43423;46.510;6.686;2022-07-29T00:37:15;96248.63;;;21.99;42.01
57594;BME280;43423;46.510;6.686;2022-07-29T00:39:40;96250.69;;;21.91;41.24
57594;BME280;43423;46.510;6.686;2022-07-29T00:42:06;96244.91;;;21.89;40.98
57594;BME280;43423;46.510;6.686;2022-07-29T00:44:39;96246.75;;;21.87;42.50
57594;BME280;43423;46.510;6.686;2022-07-29T00:47:05;96243.59;;;21.83;42.53
57594;BME280;43423;46.510;6.686;2022-07-29T00:49:32;96246.56;;;21.77;41.86
57594;BME280;43423;46.510;6.686;2022-07-29T00:52:00;96250.50;;;21.74;42.40
57594;BME280;43423;46.510;6.686;2022-07-29T00:54:26;96253.84;;;21.80;43.75
57594;BME280;43423;46.510;6.686;2022-07-29T00:56:52;96249.38;;;21.77;43.61
57594;BME280;43423;46.510;6.686;2022-07-29T00:59:18;96251.25;;;21.74;43.24
57594;BME280;43423;46.510;6.686;2022-07-29T01:01:43;96246.19;;;21.73;43.16
57594;BME280;43423;46.510;6.686;2022-07-29T01:04:09;96244.91;;;21.74;43.68
57594;BME280;43423;46.510;6.686;2022-07-29T01:06:34;96241.53;;;21.76;43.01
57594;BME280;43423;46.510;6.686;2022-07-29T01:09:00;96244.16;;;21.81;42.20
57594;BME280;43423;46.510;6.686;2022-07-29T01:11:27;96238.56;;;21.81;42.37
57594;BME280;43423;46.510;6.686;2022-07-29T01:13:52;96244.50;;;21.85;41.71
57594;BME280;43423;46.510;6.686;2022-07-29T01:16:24;96248.25;;;21.88;42.65
57594;BME280;43423;46.510;6.686;2022-07-29T01:18:53;96249.75;;;21.89;43.46
57594;BME280;43423;46.510;6.686;2022-07-29T01:21:47;96245.66;;;21.82;43.36
57594;BME280;43423;46.510;6.686;2022-07-29T01:24:39;96246.56;;;21.77;42.78
57594;BME280;43423;46.510;6.686;2022-07-29T01:30:06;96262.44;;;21.67;43.09
57594;BME280;43423;46.510;6.686;2022-07-29T01:32:35;96257.41;;;21.73;42.69
57594;BME280;43423;46.510;6.686;2022-07-29T01:35:12;96247.31;;;21.78;43.64
57594;BME280;43423;46.510;6.686;2022-07-29T01:38:01;96250.50;;;21.82;42.67
57594;BME280;43423;46.510;6.686;2022-07-29T01:41:03;96254.97;;;21.85;43.48
57594;BME280;43423;46.510;6.686;2022-07-29T01:43:44;96256.09;;;21.82;44.11
57594;BME280;43423;46.510;6.686;2022-07-29T01:46:20;96249.53;;;21.79;44.00
57594;BME280;43423;46.510;6.686;2022-07-29T01:48:57;96243.41;;;21.81;42.98
57594;BME280;43423;46.510;6.686;2022-07-29T01:51:31;96242.47;;;21.78;44.38
57594;BME280;43423;46.510;6.686;2022-07-29T01:54:08;96251.81;;;21.81;44.76
57594;BME280;43423;46.510;6.686;2022-07-29T01:56:37;96253.66;;;21.78;44.96
57594;BME280;43423;46.510;6.686;2022-07-29T01:59:04;96245.81;;;21.77;45.29
57594;BME280;43423;46.510;6.686;2022-07-29T02:01:33;96244.34;;;21.76;45.01
57594;BME280;43423;46.510;6.686;2022-07-29T02:04:02;96249.38;;;21.77;45.30
57594;BME280;43423;46.510;6.686;2022-07-29T02:06:29;96252.34;;;21.79;45.73
57594;BME280;43423;46.510;6.686;2022-07-29T02:08:57;96256.84;;;21.82;44.63
57594;BME280;43423;46.510;6.686;2022-07-29T02:11:24;96254.78;;;21.83;45.85
57594;BME280;43423;46.510;6.686;2022-07-29T02:13:52;96248.78;;;21.79;45.21
57594;BME280;43423;46.510;6.686;2022-07-29T02:16:20;96255.13;;;21.79;46.37
57594;BME280;43423;46.510;6.686;2022-07-29T02:18:48;96257.75;;;21.77;46.43
57594;BME280;43423;46.510;6.686;2022-07-29T02:21:19;96257.00;;;21.77;45.95
57594;BME280;43423;46.510;6.686;2022-07-29T02:23:47;96249.00;;;21.73;45.48
57594;BME280;43423;46.510;6.686;2022-07-29T02:26:14;96250.66;;;21.76;46.58
57594;BME280;43423;46.510;6.686;2022-07-29T02:28:40;96247.69;;;21.74;46.66
57594;BME280;43423;46.510;6.686;2022-07-29T02:31:07;96245.25;;;21.63;45.23
57594;BME280;43423;46.510;6.686;2022-07-29T02:33:33;96249.00;;;21.58;45.15
57594;BME280;43423;46.510;6.686;2022-07-29T02:36:00;96243.16;;;21.48;44.76
57594;BME280;43423;46.510;6.686;2022-07-29T02:38:27;96239.28;;;21.51;44.67
57594;BME280;43423;46.510;6.686;2022-07-29T02:41:18;96243.19;;;21.56;44.80
57594;BME280;43423;46.510;6.686;2022-07-29T02:43:47;96243.75;;;21.62;44.73
57594;BME280;43423;46.510;6.686;2022-07-29T02:46:19;96243.41;;;21.65;44.73
57594;BME280;43423;46.510;6.686;2022-07-29T02:48:51;96249.91;;;21.53;44.93
57594;BME280;43423;46.510;6.686;2022-07-29T02:51:28;96247.66;;;21.43;45.01
57594;BME280;43423;46.510;6.686;2022-07-29T02:53:56;96245.97;;;21.48;44.29
57594;BME280;43423;46.510;6.686;2022-07-29T02:56:28;96254.38;;;21.56;44.43
57594;BME280;43423;46.510;6.686;2022-07-29T02:59:04;96262.59;;;21.54;44.09
57594;BME280;43423;46.510;6.686;2022-07-29T03:01:32;96258.84;;;21.43;44.55
57594;BME280;43423;46.510;6.686;2022-07-29T03:04:01;96263.50;;;21.41;44.58
57594;BME280;43423;46.510;6.686;2022-07-29T03:06:28;96263.13;;;21.44;44.86
57594;BME280;43423;46.510;6.686;2022-07-29T03:08:55;96263.13;;;21.44;45.17
57594;BME280;43423;46.510;6.686;2022-07-29T03:11:21;96267.59;;;21.48;45.50
57594;BME280;43423;46.510;6.686;2022-07-29T03:13:47;96265.94;;;21.52;45.10
57594;BME280;43423;46.510;6.686;2022-07-29T03:16:14;96267.78;;;21.42;46.01
57594;BME280;43423;46.510;6.686;2022-07-29T03:18:40;96252.88;;;21.55;45.72
57594;BME280;43423;46.510;6.686;2022-07-29T03:21:06;96266.13;;;21.54;46.46
57594;BME280;43423;46.510;6.686;2022-07-29T03:23:33;96266.88;;;21.55;46.61
57594;BME280;43423;46.510;6.686;2022-07-29T03:25:58;96263.31;;;21.46;46.64
57594;BME280;43423;46.510;6.686;2022-07-29T03:28:26;96264.25;;;21.34;46.94
57594;BME280;43423;46.510;6.686;2022-07-29T03:30:53;96265.34;;;21.38;47.26
57594;BME280;43423;46.510;6.686;2022-07-29T03:33:19;96263.84;;;21.37;48.17
57594;BME280;43423;46.510;6.686;2022-07-29T03:35:44;96266.81;;;21.32;48.54
57594;BME280;43423;46.510;6.686;2022-07-29T03:38:10;96270.75;;;21.29;48.81
57594;BME280;43423;46.510;6.686;2022-07-29T03:40:49;96270.53;;;21.27;48.29
57594;BME280;43423;46.510;6.686;2022-07-29T03:43:16;96275.63;;;21.00;48.89
57594;BME280;43423;46.510;6.686;2022-07-29T03:45:45;96270.00;;;20.84;49.27
57594;BME280;43423;46.510;6.686;2022-07-29T03:48:14;96261.75;;;20.71;49.56
57594;BME280;43423;46.510;6.686;2022-07-29T03:50:41;96262.78;;;20.97;48.98
57594;BME280;43423;46.510;6.686;2022-07-29T03:53:08;96261.47;;;20.98;49.22
57594;BME280;43423;46.510;6.686;2022-07-29T03:55:39;96262.22;;;20.98;49.51
57594;BME280;43423;46.510;6.686;2022-07-29T03:58:07;96263.75;;;21.07;49.97
57594;BME280;43423;46.510;6.686;2022-07-29T04:00:34;96260.00;;;21.04;50.13
57594;BME280;43423;46.510;6.686;2022-07-29T04:03:00;96265.97;;;21.08;49.95
57594;BME280;43423;46.510;6.686;2022-07-29T04:05:26;96265.22;;;21.08;49.94
57594;BME280;43423;46.510;6.686;2022-07-29T04:07:52;96266.16;;;21.03;49.76
57594;BME280;43423;46.510;6.686;2022-07-29T04:10:17;96271.56;;;21.08;50.27
57594;BME280;43423;46.510;6.686;2022-07-29T04:12:44;96280.50;;;21.07;49.83
57594;BME280;43423;46.510;6.686;2022-07-29T04:15:10;96282.72;;;21.01;50.10
57594;BME280;43423;46.510;6.686;2022-07-29T04:17:36;96284.25;;;21.02;50.12
57594;BME280;43423;46.510;6.686;2022-07-29T04:20:02;96282.22;;;21.10;50.11
57594;BME280;43423;46.510;6.686;2022-07-29T04:22:28;96271.56;;;21.08;50.12
57594;BME280;43423;46.510;6.686;2022-07-29T04:24:53;96275.69;;;21.15;51.00
57594;BME280;43423;46.510;6.686;2022-07-29T04:27:19;96274.03;;;21.19;50.54
57594;BME280;43423;46.510;6.686;2022-07-29T04:29:44;96266.41;;;21.20;50.37
57594;BME280;43423;46.510;6.686;2022-07-29T04:32:10;96279.63;;;21.19;50.53
57594;BME280;43423;46.510;6.686;2022-07-29T04:34:36;96282.44;;;21.19;51.42
57594;BME280;43423;46.510;6.686;2022-07-29T04:37:01;96290.59;;;21.10;51.87
57594;BME280;43423;46.510;6.686;2022-07-29T04:39:26;96300.09;;;21.07;51.58
57594;BME280;43423;46.510;6.686;2022-07-29T04:41:52;96295.03;;;20.98;51.80
57594;BME280;43423;46.510;6.686;2022-07-29T04:44:18;96296.84;;;20.87;51.93
57594;BME280;43423;46.510;6.686;2022-07-29T04:46:44;96299.22;;;20.83;52.17
57594;BME280;43423;46.510;6.686;2022-07-29T04:49:10;96309.50;;;20.88;51.76
57594;BME280;43423;46.510;6.686;2022-07-29T04:51:35;96301.28;;;20.83;51.51
57594;BME280;43423;46.510;6.686;2022-07-29T04:54:01;96312.13;;;20.86;51.58
57594;BME280;43423;46.510;6.686;2022-07-29T04:56:27;96316.50;;;20.74;51.97
57594;BME280;43423;46.510;6.686;2022-07-29T04:58:53;96320.59;;;20.73;52.31
57594;BME280;43423;46.510;6.686;2022-07-29T05:01:18;96315.81;;;20.81;53.04
57594;BME280;43423;46.510;6.686;2022-07-29T05:03:44;96314.78;;;21.00;51.96
57594;BME280;43423;46.510;6.686;2022-07-29T05:06:10;96317.09;;;21.24;51.35
57594;BME280;43423;46.510;6.686;2022-07-29T05:08:36;96317.19;;;21.39;51.35
57594;BME280;43423;46.510;6.686;2022-07-29T05:11:02;96317.41;;;21.41;51.25
57594;BME280;43423;46.510;6.686;2022-07-29T05:13:28;96325.81;;;21.64;50.52
57594;BME280;43423;46.510;6.686;2022-07-29T05:15:54;96320.03;;;21.55;51.53
57594;BME280;43423;46.510;6.686;2022-07-29T05:18:20;96324.31;;;21.56;52.22
57594;BME280;43423;46.510;6.686;2022-07-29T05:20:45;96324.28;;;21.40;52.93
57594;BME280;43423;46.510;6.686;2022-07-29T05:23:11;96333.63;;;21.43;53.49
57594;BME280;43423;46.510;6.686;2022-07-29T05:25:40;96330.25;;;21.44;54.34
57594;BME280;43423;46.510;6.686;2022-07-29T05:28:06;96328.38;;;21.39;54.67
57594;BME280;43423;46.510;6.686;2022-07-29T05:30:31;96323.50;;;21.32;54.30
57594;BME280;43423;46.510;6.686;2022-07-29T05:32:57;96322.78;;;21.39;54.74
57594;BME280;43423;46.510;6.686;2022-07-29T05:35:22;96332.13;;;21.42;55.03
57594;BME280;43423;46.510;6.686;2022-07-29T05:37:47;96324.09;;;21.46;54.84
57594;BME280;43423;46.510;6.686;2022-07-29T05:40:13;96332.69;;;21.56;56.12
57594;BME280;43423;46.510;6.686;2022-07-29T05:42:38;96327.31;;;21.58;54.32
57594;BME280;43423;46.510;6.686;2022-07-29T05:45:04;96336.47;;;21.66;54.40
57594;BME280;43423;46.510;6.686;2022-07-29T05:47:30;96342.44;;;21.70;53.44
57594;BME280;43423;46.510;6.686;2022-07-29T05:49:56;96335.56;;;21.79;54.17
57594;BME280;43423;46.510;6.686;2022-07-29T05:52:22;96343.78;;;21.84;54.71
57594;BME280;43423;46.510;6.686;2022-07-29T05:54:48;96348.25;;;21.87;54.33
57594;BME280;43423;46.510;6.686;2022-07-29T05:57:21;96349.78;;;21.88;54.92
57594;BME280;43423;46.510;6.686;2022-07-29T05:59:49;96349.38;;;21.92;54.46
57594;BME280;43423;46.510;6.686;2022-07-29T06:02:15;96347.16;;;21.83;55.06
57594;BME280;43423;46.510;6.686;2022-07-29T06:04:41;96346.75;;;21.86;55.12
57594;BME280;43423;46.510;6.686;2022-07-29T06:07:06;96352.38;;;21.86;55.32
57594;BME280;43423;46.510;6.686;2022-07-29T06:09:33;96358.69;;;21.87;56.67
57594;BME280;43423;46.510;6.686;2022-07-29T06:11:59;96355.72;;;21.85;56.84
57594;BME280;43423;46.510;6.686;2022-07-29T06:14:25;96353.50;;;21.83;57.62
57594;BME280;43423;46.510;6.686;2022-07-29T06:16:52;96354.41;;;21.86;57.47
57594;BME280;43423;46.510;6.686;2022-07-29T06:19:18;96363.19;;;21.82;58.72
57594;BME280;43423;46.510;6.686;2022-07-29T06:21:44;96368.56;;;21.65;60.09
57594;BME280;43423;46.510;6.686;2022-07-29T06:24:12;96361.66;;;21.66;60.12
57594;BME280;43423;46.510;6.686;2022-07-29T06:26:41;96362.44;;;21.82;58.98
57594;BME280;43423;46.510;6.686;2022-07-29T06:29:07;96366.91;;;21.77;60.19
57594;BME280;43423;46.510;6.686;2022-07-29T06:31:33;96374.00;;;21.78;60.10
57594;BME280;43423;46.510;6.686;2022-07-29T06:33:59;96374.72;;;21.79;59.41
57594;BME280;43423;46.510;6.686;2022-07-29T06:36:24;96379.97;;;21.82;59.64
57594;BME280;43423;46.510;6.686;2022-07-29T06:38:50;96377.38;;;21.84;59.45
57594;BME280;43423;46.510;6.686;2022-07-29T06:41:16;96372.16;;;21.88;59.91
57594;BME280;43423;46.510;6.686;2022-07-29T06:43:43;96378.13;;;21.92;59.35
57594;BME280;43423;46.510;6.686;2022-07-29T06:46:19;96374.75;;;21.86;60.20
57594;BME280;43423;46.510;6.686;2022-07-29T06:48:45;96368.06;;;21.89;59.86
57594;BME280;43423;46.510;6.686;2022-07-29T06:51:12;96368.44;;;22.01;59.57
57594;BME280;43423;46.510;6.686;2022-07-29T06:53:38;96369.59;;;22.13;58.93
57594;BME280;43423;46.510;6.686;2022-07-29T06:56:06;96371.47;;;22.11;59.38
57594;BME280;43423;46.510;6.686;2022-07-29T06:58:34;96376.13;;;22.16;59.13
57594;BME280;43423;46.510;6.686;2022-07-29T07:01:04;96377.81;;;22.49;58.46
57594;BME280;43423;46.510;6.686;2022-07-29T07:03:30;96380.44;;;22.63;58.59
57594;BME280;43423;46.510;6.686;2022-07-29T07:05:57;96378.94;;;22.46;58.42
57594;BME280;43423;46.510;6.686;2022-07-29T07:08:23;96375.03;;;22.42;58.85
57594;BME280;43423;46.510;6.686;2022-07-29T07:10:49;96377.63;;;22.40;58.87
57594;BME280;43423;46.510;6.686;2022-07-29T07:13:15;96377.06;;;22.41;58.13
57594;BME280;43423;46.510;6.686;2022-07-29T07:15:43;96379.88;;;22.34;58.17
57594;BME280;43423;46.510;6.686;2022-07-29T07:18:09;96386.03;;;22.32;58.57
57594;BME280;43423;46.510;6.686;2022-07-29T07:20:35;96376.72;;;22.22;58.10
57594;BME280;43423;46.510;6.686;2022-07-29T07:23:01;96382.69;;;22.34;59.37
57594;BME280;43423;46.510;6.686;2022-07-29T07:25:27;96369.03;;;22.15;59.42
57594;BME280;43423;46.510;6.686;2022-07-29T07:28:13;96367.00;;;22.23;59.84
57594;BME280;43423;46.510;6.686;2022-07-29T07:30:39;96373.34;;;22.23;59.71
57594;BME280;43423;46.510;6.686;2022-07-29T07:33:04;96384.72;;;22.25;59.74
57594;BME280;43423;46.510;6.686;2022-07-29T07:35:30;96388.25;;;22.18;60.05
57594;BME280;43423;46.510;6.686;2022-07-29T07:37:56;96401.53;;;22.18;59.99
57594;BME280;43423;46.510;6.686;2022-07-29T07:40:22;96397.63;;;22.21;59.86
57594;BME280;43423;46.510;6.686;2022-07-29T07:42:48;96401.34;;;22.31;60.33
57594;BME280;43423;46.510;6.686;2022-07-29T07:45:13;96410.69;;;22.41;60.45
57594;BME280;43423;46.510;6.686;2022-07-29T07:47:39;96410.34;;;22.45;59.20
57594;BME280;43423;46.510;6.686;2022-07-29T07:50:06;96410.69;;;22.41;59.64
57594;BME280;43423;46.510;6.686;2022-07-29T07:52:32;96421.53;;;22.37;60.14
57594;BME280;43423;46.510;6.686;2022-07-29T07:54:59;96425.06;;;22.30;60.80
57594;BME280;43423;46.510;6.686;2022-07-29T07:57:24;96425.44;;;22.26;60.85
57594;BME280;43423;46.510;6.686;2022-07-29T07:59:50;96425.44;;;22.34;61.06
57594;BME280;43423;46.510;6.686;2022-07-29T08:02:16;96419.66;;;22.32;60.79
57594;BME280;43423;46.510;6.686;2022-07-29T08:04:42;96424.50;;;22.24;61.68
57594;BME280;43423;46.510;6.686;2022-07-29T08:07:08;96417.59;;;22.25;61.60
57594;BME280;43423;46.510;6.686;2022-07-29T08:09:34;96419.28;;;22.20;61.93
57594;BME280;43423;46.510;6.686;2022-07-29T08:12:00;96403.97;;;22.21;61.48
57594;BME280;43423;46.510;6.686;2022-07-29T08:14:30;96412.16;;;22.27;62.04
57594;BME280;43423;46.510;6.686;2022-07-29T08:16:56;96421.16;;;22.33;62.30
57594;BME280;43423;46.510;6.686;2022-07-29T08:19:21;96428.06;;;22.32;61.70
57594;BME280;43423;46.510;6.686;2022-07-29T08:21:46;96426.00;;;22.33;61.97
57594;BME280;43423;46.510;6.686;2022-07-29T08:24:12;96425.25;;;22.32;62.10
57594;BME280;43423;46.510;6.686;2022-07-29T08:26:56;96427.50;;;22.41;62.64
57594;BME280;43423;46.510;6.686;2022-07-29T08:29:21;96429.19;;;22.44;62.93
57594;BME280;43423;46.510;6.686;2022-07-29T08:31:47;96441.31;;;22.39;63.44
57594;BME280;43423;46.510;6.686;2022-07-29T08:34:12;96435.53;;;22.37;62.91
57594;BME280;43423;46.510;6.686;2022-07-29T08:36:38;96430.28;;;22.34;63.09
57594;BME280;43423;46.510;6.686;2022-07-29T08:39:04;96429.34;;;22.23;63.51
57594;BME280;43423;46.510;6.686;2022-07-29T08:41:30;96425.63;;;22.21;63.82
57594;BME280;43423;46.510;6.686;2022-07-29T08:43:56;96436.06;;;22.13;63.77
57594;BME280;43423;46.510;6.686;2022-07-29T08:46:22;96426.72;;;22.10;65.19
57594;BME280;43423;46.510;6.686;2022-07-29T08:48:48;96424.66;;;22.18;64.91
57594;BME280;43423;46.510;6.686;2022-07-29T08:51:16;96426.94;;;22.20;65.01
57594;BME280;43423;46.510;6.686;2022-07-29T08:53:43;96432.00;;;22.29;65.05
57594;BME280;43423;46.510;6.686;2022-07-29T08:56:13;96423.38;;;22.27;64.83
57594;BME280;43423;46.510;6.686;2022-07-29T08:58:39;96432.00;;;22.29;64.83
57594;BME280;43423;46.510;6.686;2022-07-29T09:01:06;96428.97;;;22.35;64.78
57594;BME280;43423;46.510;6.686;2022-07-29T09:03:34;96425.25;;;22.32;64.06
57594;BME280;43423;46.510;6.686;2022-07-29T09:06:02;96428.25;;;22.42;64.69
57594;BME280;43423;46.510;6.686;2022-07-29T09:08:27;96422.66;;;22.42;65.06
57594;BME280;43423;46.510;6.686;2022-07-29T09:10:54;96420.41;;;22.48;64.68
57594;BME280;43423;46.510;6.686;2022-07-29T09:13:21;96426.75;;;22.48;64.83
57594;BME280;43423;46.510;6.686;2022-07-29T09:15:47;96435.16;;;22.48;65.61
57594;BME280;43423;46.510;6.686;2022-07-29T09:20:58;96445.44;;;22.46;65.81
57594;BME280;43423;46.510;6.686;2022-07-29T09:26:32;96453.69;;;22.51;65.69
57594;BME280;43423;46.510;6.686;2022-07-29T09:28:58;96441.53;;;22.56;65.64
57594;BME280;43423;46.510;6.686;2022-07-29T09:31:33;96445.06;;;22.57;64.78
57594;BME280;43423;46.510;6.686;2022-07-29T09:34:00;96441.16;;;22.52;64.35
57594;BME280;43423;46.510;6.686;2022-07-29T09:36:25;96426.75;;;22.48;64.12
57594;BME280;43423;46.510;6.686;2022-07-29T09:38:58;96439.47;;;22.49;64.26
57594;BME280;43423;46.510;6.686;2022-07-29T09:41:26;96437.22;;;22.48;64.03
57594;BME280;43423;46.510;6.686;2022-07-29T09:43:59;96445.44;;;22.53;64.14
57594;BME280;43423;46.510;6.686;2022-07-29T09:46:25;96436.47;;;22.63;64.22
57594;BME280;43423;46.510;6.686;2022-07-29T09:49:12;96439.28;;;22.63;63.64
57594;BME280;43423;46.510;6.686;2022-07-29T09:51:38;96442.84;;;22.63;63.76
57594;BME280;43423;46.510;6.686;2022-07-29T09:54:23;96436.09;;;22.74;64.03
57594;BME280;43423;46.510;6.686;2022-07-29T09:56:49;96433.50;;;22.76;62.72
57594;BME280;43423;46.510;6.686;2022-07-29T09:59:15;96445.25;;;22.74;63.61
57594;BME280;43423;46.510;6.686;2022-07-29T10:01:40;96439.84;;;22.61;63.36
57594;BME280;43423;46.510;6.686;2022-07-29T10:04:06;96446.56;;;22.58;63.35
57594;BME280;43423;46.510;6.686;2022-07-29T10:06:31;96441.34;;;22.62;64.21
57594;BME280;43423;46.510;6.686;2022-07-29T10:09:07;96443.97;;;22.52;64.15
57594;BME280;43423;46.510;6.686;2022-07-29T10:11:34;96448.81;;;22.52;63.66
57594;BME280;43423;46.510;6.686;2022-07-29T10:14:02;96456.47;;;22.44;64.36
57594;BME280;43423;46.510;6.686;2022-07-29T10:16:28;96455.16;;;22.45;64.53
57594;BME280;43423;46.510;6.686;2022-07-29T10:18:58;96452.91;;;22.43;64.88
57594;BME280;43423;46.510;6.686;2022-07-29T10:21:25;96463.75;;;22.39;64.14
57594;BME280;43423;46.510;6.686;2022-07-29T10:23:52;96456.25;;;22.42;64.46
57594;BME280;43423;46.510;6.686;2022-07-29T10:26:19;96463.34;;;22.35;63.91
57594;BME280;43423;46.510;6.686;2022-07-29T10:28:44;96463.16;;;22.33;65.65
57594;BME280;43423;46.510;6.686;2022-07-29T10:31:19;96468.56;;;22.23;63.90
57594;BME280;43423;46.510;6.686;2022-07-29T10:34:43;96473.97;;;22.21;64.90
57594;BME280;43423;46.510;6.686;2022-07-29T10:37:12;96465.59;;;22.21;64.70
57594;BME280;43423;46.510;6.686;2022-07-29T10:40:22;96461.81;;;22.19;64.88
57594;BME280;43423;46.510;6.686;2022-07-29T10:43:31;96467.06;;;22.15;66.00
57594;BME280;43423;46.510;6.686;2022-07-29T10:46:01;96458.09;;;22.16;65.50
57594;BME280;43423;46.510;6.686;2022-07-29T10:48:27;96463.13;;;22.18;64.99
57594;BME280;43423;46.510;6.686;2022-07-29T10:51:01;96460.91;;;22.16;63.69
57594;BME280;43423;46.510;6.686;2022-07-29T10:53:50;96461.06;;;22.11;63.13
57594;BME280;43423;46.510;6.686;2022-07-29T10:56:24;96460.53;;;22.20;61.70
57594;BME280;43423;46.510;6.686;2022-07-29T11:01:52;96472.53;;;22.36;61.88
57594;BME280;43423;46.510;6.686;2022-07-29T11:07:08;96477.53;;;22.22;61.79
57594;BME280;43423;46.510;6.686;2022-07-29T11:09:34;96480.91;;;22.28;62.19
57594;BME280;43423;46.510;6.686;2022-07-29T11:12:00;96493.78;;;22.31;62.41
57594;BME280;43423;46.510;6.686;2022-07-29T11:14:57;96516.00;;;22.29;62.63
57594;BME280;43423;46.510;6.686;2022-07-29T11:17:24;96527.59;;;22.33;62.22
57594;BME280;43423;46.510;6.686;2022-07-29T11:19:49;96532.84;;;22.37;61.72
57594;BME280;43423;46.510;6.686;2022-07-29T11:22:34;96536.19;;;22.35;62.42
57594;BME280;43423;46.510;6.686;2022-07-29T11:25:17;96550.56;;;22.32;62.49
57594;BME280;43423;46.510;6.686;2022-07-29T11:27:44;96564.41;;;22.37;64.13
57594;BME280;43423;46.510;6.686;2022-07-29T11:30:10;96565.50;;;22.34;65.92
57594;BME280;43423;46.510;6.686;2022-07-29T11:32:44;96581.34;;;22.24;68.93
57594;BME280;43423;46.510;6.686;2022-07-29T11:35:20;96591.09;;;22.02;67.92
57594;BME280;43423;46.510;6.686;2022-07-29T11:43:54;96619.84;;;21.66;68.69
57594;BME280;43423;46.510;6.686;2022-07-29T11:46:49;96615.09;;;21.54;68.86
57594;BME280;43423;46.510;6.686;2022-07-29T11:49:22;96619.00;;;21.51;68.47
57594;BME280;43423;46.510;6.686;2022-07-29T11:51:55;96617.28;;;21.48;68.89
57594;BME280;43423;46.510;6.686;2022-07-29T11:54:25;96628.25;;;21.45;69.57
57594;BME280;43423;46.510;6.686;2022-07-29T11:56:53;96631.00;;;21.38;69.76
57594;BME280;43423;46.510;6.686;2022-07-29T11:59:20;96623.66;;;21.27;69.79
57594;BME280;43423;46.510;6.686;2022-07-29T12:01:56;96609.97;;;21.24;70.11
57594;BME280;43423;46.510;6.686;2022-07-29T12:04:22;96630.66;;;21.21;70.57
57594;BME280;43423;46.510;6.686;2022-07-29T12:06:53;96624.69;;;21.24;71.03
57594;BME280;43423;46.510;6.686;2022-07-29T12:09:20;96625.81;;;21.21;70.57
57594;BME280;43423;46.510;6.686;2022-07-29T12:11:46;96624.69;;;21.24;71.24
57594;BME280;43423;46.510;6.686;2022-07-29T12:14:29;96635.50;;;21.20;71.88
57594;BME280;43423;46.510;6.686;2022-07-29T12:16:55;96634.19;;;21.21;71.65
57594;BME280;43423;46.510;6.686;2022-07-29T12:19:21;96635.69;;;21.22;71.91
57594;BME280;43423;46.510;6.686;2022-07-29T12:21:48;96630.97;;;21.17;70.78
57594;BME280;43423;46.510;6.686;2022-07-29T12:24:14;96630.59;;;21.13;70.20
57594;BME280;43423;46.510;6.686;2022-07-29T12:26:54;96635.28;;;21.18;70.52
57594;BME280;43423;46.510;6.686;2022-07-29T12:29:20;96634.53;;;21.17;70.01
57594;BME280;43423;46.510;6.686;2022-07-29T12:31:46;96641.09;;;21.20;70.58
57594;BME280;43423;46.510;6.686;2022-07-29T12:34:13;96633.94;;;21.11;68.36
57594;BME280;43423;46.510;6.686;2022-07-29T12:36:43;96625.78;;;21.00;69.42
57594;BME280;43423;46.510;6.686;2022-07-29T12:39:10;96638.69;;;21.03;69.14
57594;BME280;43423;46.510;6.686;2022-07-29T12:41:37;96634.72;;;20.99;69.08
57594;BME280;43423;46.510;6.686;2022-07-29T12:44:03;96643.13;;;20.99;68.88
57594;BME280;43423;46.510;6.686;2022-07-29T12:46:28;96639.03;;;21.00;70.03
57594;BME280;43423;46.510;6.686;2022-07-29T12:48:54;96632.13;;;21.01;68.80
57594;BME280;43423;46.510;6.686;2022-07-29T12:51:34;96643.38;;;21.08;68.46
57594;BME280;43423;46.510;6.686;2022-07-29T12:54:13;96636.97;;;21.00;66.93
57594;BME280;43423;46.510;6.686;2022-07-29T12:56:40;96633.97;;;20.98;67.07
57594;BME280;43423;46.510;6.686;2022-07-29T12:59:21;96633.44;;;21.00;69.94
57594;BME280;43423;46.510;6.686;2022-07-29T13:01:49;96631.53;;;20.95;70.91
57594;BME280;43423;46.510;6.686;2022-07-29T13:04:31;96639.25;;;21.02;72.70
57594;BME280;43423;46.510;6.686;2022-07-29T13:07:06;96643.88;;;20.99;73.22
57594;BME280;43423;46.510;6.686;2022-07-29T13:09:43;96639.25;;;21.02;72.57
57594;BME280;43423;46.510;6.686;2022-07-29T13:12:11;96645.03;;;21.04;71.99
57594;BME280;43423;46.510;6.686;2022-07-29T13:14:38;96643.94;;;21.07;73.17
57594;BME280;43423;46.510;6.686;2022-07-29T13:17:09;96645.03;;;21.04;73.10
57594;BME280;43423;46.510;6.686;2022-07-29T13:19:40;96641.06;;;20.99;73.00
57594;BME280;43423;46.510;6.686;2022-07-29T13:22:08;96648.03;;;21.06;74.72
57594;BME280;43423;46.510;6.686;2022-07-29T13:24:54;96651.25;;;21.10;74.04
57594;BME280;43423;46.510;6.686;2022-07-29T13:27:25;96644.56;;;21.13;74.37
57594;BME280;43423;46.510;6.686;2022-07-29T13:29:52;96651.09;;;21.15;73.76